Time;durP1;ratioP1;P1;durP2;ratioP2;P2;SDS_P1;SDS_P2;PMS_P1;PMS_P2;Temp;Humidity;BMP_temperature;BMP_pressure;BME280_temperature;BME280_humidity;BME280_pressure;Samples;Min_cycle;Max_cycle;Signal;HPM_P1;HPM_P2
2023/12/19 00:01:45;;;;;;;22.33;14.65;;;2.20;99.90;;;;;;478520;248;27533;-69
2023/12/19 00:03:46;;;;;;;23.10;15.75;;;2.10;99.90;;;;;;478501;248;27625;-69
2023/12/19 00:05:47;;;;;;;25.52;16.98;;;2.20;99.90;;;;;;478509;248;27612;-69
2023/12/19 00:07:48;;;;;;;23.90;16.70;;;2.20;99.90;;;;;;478499;248;27498;-69
2023/12/19 00:09:50;;;;;;;28.10;18.25;;;2.10;99.90;;;;;;478475;248;27649;-69
2023/12/19 00:11:51;;;;;;;23.60;17.65;;;2.20;99.90;;;;;;478514;248;27569;-71
2023/12/19 00:13:52;;;;;;;22.65;16.02;;;2.00;99.90;;;;;;478513;248;27960;-69
2023/12/19 00:15:53;;;;;;;25.40;17.90;;;2.00;99.90;;;;;;478505;248;29095;-69
2023/12/19 00:17:55;;;;;;;22.98;15.90;;;2.00;99.90;;;;;;478497;248;27488;-69
2023/12/19 00:19:56;;;;;;;25.48;16.65;;;2.10;99.90;;;;;;478537;248;27633;-69
2023/12/19 00:21:57;;;;;;;25.62;16.95;;;2.10;99.90;;;;;;478526;248;27549;-69
2023/12/19 00:23:58;;;;;;;24.60;16.60;;;2.10;99.90;;;;;;478475;248;27515;-69
2023/12/19 00:26:00;;;;;;;23.42;15.75;;;2.10;99.90;;;;;;478507;248;27608;-69
2023/12/19 00:28:01;;;;;;;24.83;16.37;;;2.10;99.90;;;;;;478392;243;28266;-69
2023/12/19 00:30:02;;;;;;;25.90;18.10;;;2.00;99.90;;;;;;478524;248;27942;-69
2023/12/19 00:32:03;;;;;;;26.42;17.83;;;1.90;99.90;;;;;;478526;248;28004;-69
2023/12/19 00:34:05;;;;;;;26.55;16.37;;;2.00;99.90;;;;;;478480;248;27488;-69
2023/12/19 00:36:06;;;;;;;25.70;17.90;;;1.90;99.90;;;;;;478534;248;27546;-69
2023/12/19 00:38:07;;;;;;;24.52;17.92;;;2.00;99.90;;;;;;478518;248;27918;-70
2023/12/19 00:40:08;;;;;;;28.00;18.30;;;1.90;99.90;;;;;;478492;248;27495;-69
2023/12/19 00:42:10;;;;;;;27.92;17.75;;;1.90;99.90;;;;;;478508;248;27538;-69
2023/12/19 00:44:11;;;;;;;27.98;18.10;;;1.90;99.90;;;;;;478478;248;27960;-68
2023/12/19 00:46:12;;;;;;;31.92;19.02;;;1.90;99.90;;;;;;478509;248;28024;-68
2023/12/19 00:48:15;;;;;;;29.92;19.52;;;1.90;99.90;;;;;;478527;248;28007;-69
2023/12/19 00:50:15;;;;;;;31.35;18.40;;;1.80;99.90;;;;;;478413;248;27581;-69
2023/12/19 00:52:16;;;;;;;29.40;18.90;;;1.90;99.90;;;;;;478531;248;27562;-69
2023/12/19 00:54:18;;;;;;;29.83;19.37;;;1.90;99.90;;;;;;478464;248;27641;-68
2023/12/19 00:56:18;;;;;;;29.73;18.95;;;1.80;99.90;;;;;;478497;248;27505;-69
2023/12/19 00:58:20;;;;;;;31.08;20.10;;;1.80;99.90;;;;;;478528;248;27570;-70
2023/12/19 01:00:21;;;;;;;27.67;18.15;;;1.70;99.90;;;;;;478523;248;27957;-68
2023/12/19 01:02:23;;;;;;;34.47;19.70;;;1.70;99.90;;;;;;478526;248;28030;-69
2023/12/19 01:04:23;;;;;;;31.55;19.73;;;1.70;99.90;;;;;;478489;248;27538;-69
2023/12/19 01:06:25;;;;;;;29.58;19.08;;;1.70;99.90;;;;;;478497;248;27516;-69
2023/12/19 01:08:26;;;;;;;26.25;18.55;;;1.70;99.90;;;;;;478490;248;27581;-69
2023/12/19 01:10:27;;;;;;;27.42;19.48;;;1.80;99.90;;;;;;478479;248;27552;-69
2023/12/19 01:12:28;;;;;;;26.87;17.55;;;1.80;99.90;;;;;;478497;248;27627;-69
2023/12/19 01:14:30;;;;;;;31.85;18.12;;;1.80;99.90;;;;;;478515;248;27556;-70
2023/12/19 01:16:31;;;;;;;28.38;17.98;;;1.80;99.90;;;;;;478528;248;27947;-69
2023/12/19 01:18:32;;;;;;;26.33;16.12;;;1.80;99.90;;;;;;478514;248;28108;-69
2023/12/19 01:20:34;;;;;;;25.23;15.95;;;1.70;99.90;;;;;;478490;243;27494;-69
2023/12/19 01:22:35;;;;;;;32.42;18.42;;;1.70;99.90;;;;;;478543;248;27579;-69
2023/12/19 01:24:36;;;;;;;25.95;16.45;;;1.70;99.90;;;;;;478418;248;27526;-69
2023/12/19 01:26:37;;;;;;;23.08;16.10;;;1.70;99.90;;;;;;478556;248;27606;-69
2023/12/19 01:28:39;;;;;;;30.35;18.40;;;1.70;99.90;;;;;;478514;248;27618;-69
2023/12/19 01:30:40;;;;;;;25.83;17.40;;;1.80;99.90;;;;;;478418;248;28081;-69
2023/12/19 01:32:41;;;;;;;27.10;17.30;;;1.70;99.90;;;;;;478536;248;27961;-69
2023/12/19 01:34:42;;;;;;;25.27;16.77;;;1.70;99.90;;;;;;478552;248;27988;-68
2023/12/19 01:36:45;;;;;;;31.08;17.83;;;1.70;99.90;;;;;;478543;243;27485;-69
2023/12/19 01:38:45;;;;;;;28.12;17.60;;;1.70;99.90;;;;;;478391;248;27553;-69
2023/12/19 01:40:46;;;;;;;27.35;16.90;;;1.70;99.90;;;;;;478537;248;27560;-70
2023/12/19 01:42:47;;;;;;;25.42;16.98;;;1.70;99.90;;;;;;478499;248;27497;-69
2023/12/19 01:44:49;;;;;;;23.67;15.65;;;1.80;99.90;;;;;;478561;248;28111;-69
2023/12/19 01:46:50;;;;;;;21.87;15.20;;;1.80;99.90;;;;;;478543;248;27947;-69
2023/12/19 01:48:51;;;;;;;25.20;17.15;;;1.70;99.90;;;;;;478544;243;27511;-69
2023/12/19 01:50:52;;;;;;;23.52;15.77;;;1.70;99.90;;;;;;478551;248;27542;-69
2023/12/19 01:52:54;;;;;;;24.30;16.30;;;1.60;99.90;;;;;;478501;248;28045;-69
2023/12/19 01:54:55;;;;;;;20.95;14.87;;;1.70;99.90;;;;;;478516;243;27546;-69
2023/12/19 01:56:56;;;;;;;22.27;15.65;;;1.80;99.90;;;;;;478572;248;27550;-71
2023/12/19 01:58:57;;;;;;;27.35;16.23;;;1.70;99.90;;;;;;478561;248;27576;-69
2023/12/19 02:00:59;;;;;;;25.42;16.23;;;1.60;99.90;;;;;;478555;248;27993;-69
2023/12/19 02:03:00;;;;;;;22.70;15.00;;;1.60;99.90;;;;;;478467;248;27939;-69
2023/12/19 02:05:01;;;;;;;28.15;17.83;;;1.60;99.90;;;;;;478464;248;27534;-69
2023/12/19 02:07:02;;;;;;;23.75;15.65;;;1.60;99.90;;;;;;478511;248;27545;-71
2023/12/19 02:09:04;;;;;;;23.45;15.40;;;1.50;99.90;;;;;;478462;248;27575;-69
2023/12/19 02:11:05;;;;;;;24.10;16.42;;;1.50;99.90;;;;;;478520;248;27561;-69
2023/12/19 02:13:06;;;;;;;22.00;14.45;;;1.60;99.90;;;;;;478424;248;27562;-69
2023/12/19 02:15:07;;;;;;;20.40;13.62;;;1.60;99.90;;;;;;478479;248;27546;-69
2023/12/19 02:17:11;;;;;;;23.52;16.02;;;1.60;99.90;;;;;;478529;248;28092;-70
2023/12/19 02:19:12;;;;;;;24.63;16.55;;;1.60;99.90;;;;;;478375;248;27946;-69
2023/12/19 02:21:11;;;;;;;28.15;17.87;;;1.60;99.90;;;;;;478368;248;27542;-69
2023/12/19 02:23:12;;;;;;;29.17;17.05;;;1.50;99.90;;;;;;478529;248;27528;-69
2023/12/19 02:25:14;;;;;;;24.02;15.80;;;1.40;99.90;;;;;;478459;243;27501;-69
2023/12/19 02:27:15;;;;;;;29.15;16.90;;;1.50;99.90;;;;;;478521;248;27542;-70
2023/12/19 02:29:16;;;;;;;28.70;16.75;;;1.50;99.90;;;;;;478501;248;27670;-68
2023/12/19 02:31:18;;;;;;;27.00;15.85;;;1.50;99.90;;;;;;478497;243;27553;-69
2023/12/19 02:33:19;;;;;;;26.20;16.30;;;1.50;99.90;;;;;;478527;248;28156;-70
2023/12/19 02:35:20;;;;;;;28.35;17.20;;;1.50;99.90;;;;;;478553;248;28032;-68
2023/12/19 02:37:21;;;;;;;27.98;16.77;;;1.40;99.90;;;;;;478546;248;27653;-69
2023/12/19 02:39:23;;;;;;;24.50;16.55;;;1.40;99.90;;;;;;478525;248;27609;-68
2023/12/19 02:41:24;;;;;;;29.52;17.75;;;1.40;99.90;;;;;;478536;248;27514;-69
2023/12/19 02:43:25;;;;;;;29.90;16.73;;;1.40;99.90;;;;;;478533;248;27543;-69
2023/12/19 02:45:30;;;;;;;27.40;17.40;;;1.30;99.90;;;;;;478537;248;27572;-69
2023/12/19 02:47:28;;;;;;;23.25;15.80;;;1.30;99.90;;;;;;478260;248;27953;-69
2023/12/19 02:49:29;;;;;;;27.33;17.35;;;1.40;99.90;;;;;;478540;248;28782;-69
2023/12/19 02:51:30;;;;;;;36.95;17.75;;;1.40;99.90;;;;;;478528;248;27989;-69
2023/12/19 02:53:31;;;;;;;23.77;15.73;;;1.40;99.90;;;;;;478493;248;27528;-70
2023/12/19 02:55:33;;;;;;;28.87;18.10;;;1.30;99.90;;;;;;478516;248;27577;-69
2023/12/19 02:57:34;;;;;;;27.15;17.52;;;1.30;99.90;;;;;;478505;248;27639;-70
2023/12/19 02:59:35;;;;;;;27.52;16.92;;;1.30;99.90;;;;;;478532;248;27542;-70
2023/12/19 03:01:36;;;;;;;28.50;16.30;;;1.20;99.90;;;;;;478505;248;27557;-69
2023/12/19 03:03:38;;;;;;;26.90;17.08;;;1.20;99.90;;;;;;478493;248;28024;-70
2023/12/19 03:05:39;;;;;;;29.73;17.33;;;1.20;99.90;;;;;;478513;248;29081;-69
2023/12/19 03:07:40;;;;;;;27.55;17.48;;;1.20;99.90;;;;;;478485;243;27564;-69
2023/12/19 03:09:41;;;;;;;29.42;16.58;;;1.20;99.90;;;;;;478536;248;27542;-71
2023/12/19 03:11:43;;;;;;;28.42;17.73;;;1.20;99.90;;;;;;478512;248;27502;-69
2023/12/19 03:13:45;;;;;;;28.15;17.55;;;1.20;99.90;;;;;;478479;248;27607;-70
2023/12/19 03:15:45;;;;;;;25.27;16.45;;;1.10;99.90;;;;;;478459;248;27510;-69
2023/12/19 03:17:46;;;;;;;29.67;16.85;;;1.20;99.90;;;;;;478519;248;27555;-70
2023/12/19 03:19:48;;;;;;;26.83;15.65;;;1.20;99.90;;;;;;478537;248;28030;-69
2023/12/19 03:21:49;;;;;;;26.98;16.35;;;1.30;99.90;;;;;;478499;243;27956;-69
2023/12/19 03:23:50;;;;;;;25.25;16.70;;;1.30;99.90;;;;;;478459;248;28042;-69
2023/12/19 03:25:51;;;;;;;23.42;14.98;;;1.30;99.90;;;;;;478518;243;27521;-69
2023/12/19 03:27:53;;;;;;;26.90;17.23;;;1.40;99.90;;;;;;478540;248;27504;-69
2023/12/19 03:29:54;;;;;;;27.98;16.50;;;1.40;99.90;;;;;;478523;248;27538;-69
2023/12/19 03:31:55;;;;;;;28.50;16.92;;;1.30;99.90;;;;;;478472;248;27514;-69
2023/12/19 03:33:57;;;;;;;25.05;16.08;;;1.30;99.90;;;;;;478477;248;27582;-70
2023/12/19 03:35:58;;;;;;;27.80;17.12;;;1.20;99.90;;;;;;478550;248;28076;-70
2023/12/19 03:37:59;;;;;;;28.40;17.25;;;1.20;99.90;;;;;;478458;248;27932;-69
2023/12/19 03:40:00;;;;;;;28.48;17.55;;;1.20;99.90;;;;;;478429;248;27570;-69
2023/12/19 03:42:02;;;;;;;31.48;18.20;;;1.10;99.90;;;;;;478444;248;27483;-69
2023/12/19 03:44:03;;;;;;;29.08;16.25;;;1.10;99.90;;;;;;478475;248;27530;-69
2023/12/19 03:46:07;;;;;;;28.17;16.95;;;1.20;99.90;;;;;;478536;248;27533;-69
2023/12/19 03:48:05;;;;;;;33.85;18.95;;;1.10;99.90;;;;;;478320;248;27498;-69
2023/12/19 03:50:07;;;;;;;29.63;17.52;;;1.10;99.90;;;;;;478504;248;28001;-70
2023/12/19 03:52:08;;;;;;;31.60;18.02;;;1.10;99.90;;;;;;478472;248;28304;-69
2023/12/19 03:54:09;;;;;;;28.45;17.20;;;1.10;99.90;;;;;;478504;248;27961;-69
2023/12/19 03:56:10;;;;;;;24.73;16.02;;;1.10;99.90;;;;;;478546;248;27531;-70
2023/12/19 03:58:12;;;;;;;26.20;17.52;;;1.10;99.90;;;;;;478536;248;27583;-69
2023/12/19 04:00:13;;;;;;;27.90;16.30;;;1.00;99.90;;;;;;478517;248;27522;-70
2023/12/19 04:02:14;;;;;;;25.73;16.77;;;0.90;99.90;;;;;;478546;248;27911;-72
2023/12/19 04:04:17;;;;;;;25.10;15.65;;;0.90;99.90;;;;;;478511;248;27561;-69
2023/12/19 04:06:17;;;;;;;25.02;16.00;;;1.00;99.90;;;;;;478449;248;28109;-70
2023/12/19 04:08:18;;;;;;;26.95;16.77;;;1.00;99.90;;;;;;478502;248;27974;-69
2023/12/19 04:10:19;;;;;;;27.17;16.73;;;1.00;99.90;;;;;;478473;248;27514;-69
2023/12/19 04:12:20;;;;;;;29.52;16.23;;;0.90;99.90;;;;;;478533;248;27571;-71
2023/12/19 04:14:23;;;;;;;26.48;16.37;;;0.90;99.90;;;;;;478482;248;27501;-69
2023/12/19 04:16:23;;;;;;;23.85;15.15;;;0.90;99.90;;;;;;478432;248;27526;-70
2023/12/19 04:18:24;;;;;;;28.10;16.35;;;1.00;99.90;;;;;;478529;248;27503;-69
2023/12/19 04:20:25;;;;;;;27.50;16.65;;;1.00;99.90;;;;;;478523;248;27489;-69
2023/12/19 04:22:27;;;;;;;27.65;16.73;;;1.00;99.90;;;;;;478538;248;28003;-70
2023/12/19 04:24:28;;;;;;;29.75;17.27;;;1.00;99.90;;;;;;478497;248;27958;-69
2023/12/19 04:26:29;;;;;;;29.02;18.55;;;1.00;99.90;;;;;;478472;243;27615;-69
2023/12/19 04:28:30;;;;;;;29.83;16.85;;;0.90;99.90;;;;;;478548;248;27656;-71
2023/12/19 04:30:32;;;;;;;28.62;16.70;;;1.00;99.90;;;;;;478517;248;27598;-69
2023/12/19 04:32:33;;;;;;;26.35;15.70;;;1.00;99.90;;;;;;478491;248;27551;-69
2023/12/19 04:34:34;;;;;;;29.25;17.25;;;1.00;99.90;;;;;;478472;248;27571;-69
2023/12/19 04:36:35;;;;;;;27.23;17.15;;;1.10;99.90;;;;;;478560;248;27575;-69
2023/12/19 04:38:37;;;;;;;29.60;17.92;;;1.10;99.90;;;;;;478558;248;28077;-70
2023/12/19 04:40:38;;;;;;;32.72;18.83;;;1.00;99.90;;;;;;478561;248;27942;-69
2023/12/19 04:42:39;;;;;;;27.55;16.92;;;1.00;99.90;;;;;;478488;248;27547;-69
2023/12/19 04:44:40;;;;;;;28.45;17.45;;;1.00;99.90;;;;;;478530;248;27557;-69
2023/12/19 04:46:43;;;;;;;26.90;17.00;;;1.00;99.90;;;;;;478373;248;27575;-69
2023/12/19 04:48:43;;;;;;;29.80;17.23;;;1.00;99.90;;;;;;478500;248;27534;-70
2023/12/19 04:50:44;;;;;;;26.77;17.00;;;1.00;99.90;;;;;;478528;248;27500;-69
2023/12/19 04:52:45;;;;;;;28.42;18.45;;;0.90;99.90;;;;;;478467;248;28023;-69
2023/12/19 04:54:47;;;;;;;26.52;16.83;;;0.90;99.90;;;;;;478549;248;28090;-70
2023/12/19 04:56:50;;;;;;;25.77;16.65;;;0.80;99.90;;;;;;478546;248;27965;-69
2023/12/19 04:58:49;;;;;;;24.80;15.23;;;0.90;99.90;;;;;;478418;248;27541;-69
2023/12/19 05:00:52;;;;;;;28.30;16.70;;;0.80;99.90;;;;;;478516;248;27563;-69
2023/12/19 05:02:53;;;;;;;26.02;15.60;;;0.80;99.90;;;;;;478334;248;27662;-69
2023/12/19 05:04:53;;;;;;;28.77;17.23;;;0.90;99.90;;;;;;478371;248;27553;-70
2023/12/19 05:06:54;;;;;;;28.70;16.02;;;0.90;99.90;;;;;;478557;248;27583;-69
2023/12/19 05:08:56;;;;;;;25.33;15.73;;;0.90;99.90;;;;;;478508;248;28104;-69
2023/12/19 05:10:57;;;;;;;26.48;15.18;;;0.90;99.90;;;;;;478519;248;28787;-69
2023/12/19 05:12:58;;;;;;;24.90;15.20;;;1.00;99.90;;;;;;478512;248;27665;-69
2023/12/19 05:14:59;;;;;;;26.25;15.50;;;1.00;99.90;;;;;;478551;248;27494;-70
2023/12/19 05:17:03;;;;;;;27.85;14.70;;;0.90;99.90;;;;;;478532;248;27495;-69
2023/12/19 05:19:03;;;;;;;28.55;15.45;;;0.80;99.90;;;;;;478316;248;27558;-69
2023/12/19 05:21:03;;;;;;;27.08;16.20;;;0.90;99.90;;;;;;478429;248;27559;-70
2023/12/19 05:23:04;;;;;;;24.35;14.38;;;0.80;99.90;;;;;;478465;248;27612;-69
2023/12/19 05:25:06;;;;;;;25.98;15.00;;;0.80;99.90;;;;;;478507;248;28017;-70
2023/12/19 05:27:07;;;;;;;24.33;15.10;;;0.90;99.90;;;;;;478495;248;28110;-69
2023/12/19 05:29:08;;;;;;;25.60;15.00;;;0.90;99.90;;;;;;478510;248;27509;-69
2023/12/19 05:31:10;;;;;;;25.60;15.00;;;0.90;99.90;;;;;;478501;248;27539;-69
2023/12/19 05:33:11;;;;;;;22.67;14.32;;;0.90;99.90;;;;;;478464;248;27594;-70
2023/12/19 05:35:12;;;;;;;25.75;15.30;;;0.90;99.90;;;;;;478513;248;27708;-69
2023/12/19 05:37:13;;;;;;;23.67;15.30;;;0.80;99.90;;;;;;478507;248;27534;-69
2023/12/19 05:39:17;;;;;;;23.73;14.80;;;0.80;99.90;;;;;;478512;248;27559;-70
2023/12/19 05:41:16;;;;;;;24.30;14.48;;;0.80;99.90;;;;;;478352;248;28023;-69
2023/12/19 05:43:17;;;;;;;26.48;15.35;;;0.80;99.90;;;;;;478469;248;28027;-70
2023/12/19 05:45:18;;;;;;;27.48;14.38;;;0.70;99.90;;;;;;478518;248;27545;-69
2023/12/19 05:47:19;;;;;;;24.55;14.45;;;0.70;99.90;;;;;;478494;248;27547;-70
2023/12/19 05:49:21;;;;;;;23.65;14.10;;;0.70;99.90;;;;;;478520;248;27513;-69
2023/12/19 05:51:22;;;;;;;25.92;14.93;;;0.70;99.90;;;;;;478480;248;27547;-69
2023/12/19 05:53:23;;;;;;;26.48;15.38;;;0.70;99.90;;;;;;478460;248;27620;-69
2023/12/19 05:55:24;;;;;;;22.85;13.93;;;0.80;99.90;;;;;;478525;248;27941;-69
2023/12/19 05:57:26;;;;;;;29.63;15.55;;;0.80;99.90;;;;;;478522;248;28102;-70
2023/12/19 05:59:27;;;;;;;28.17;15.55;;;0.80;99.90;;;;;;478510;248;28081;-69
2023/12/19 06:01:28;;;;;;;27.80;16.17;;;0.70;99.90;;;;;;478461;248;27571;-69
2023/12/19 06:03:29;;;;;;;29.20;16.30;;;0.70;99.90;;;;;;478421;248;27621;-69
2023/12/19 06:05:31;;;;;;;24.67;15.55;;;0.60;99.90;;;;;;478506;248;27569;-69
2023/12/19 06:07:32;;;;;;;26.90;16.35;;;0.60;99.90;;;;;;478500;248;27518;-70
2023/12/19 06:09:33;;;;;;;30.65;17.05;;;0.70;99.90;;;;;;478504;248;27494;-69
2023/12/19 06:11:35;;;;;;;28.77;16.30;;;0.70;99.90;;;;;;478475;243;28103;-69
2023/12/19 06:13:36;;;;;;;24.55;16.65;;;0.70;99.90;;;;;;478476;248;28039;-70
2023/12/19 06:15:37;;;;;;;27.42;17.05;;;0.60;99.90;;;;;;478497;248;27559;-69
2023/12/19 06:17:38;;;;;;;26.00;16.37;;;0.70;99.90;;;;;;478481;248;27576;-70
2023/12/19 06:19:40;;;;;;;28.40;16.77;;;0.70;99.90;;;;;;478486;248;27494;-69
2023/12/19 06:21:41;;;;;;;27.85;17.25;;;0.80;99.90;;;;;;478496;248;27531;-70
2023/12/19 06:23:42;;;;;;;28.90;16.33;;;0.80;99.90;;;;;;478462;248;27569;-70
2023/12/19 06:25:43;;;;;;;28.52;16.27;;;0.80;99.90;;;;;;478487;248;27500;-69
2023/12/19 06:27:45;;;;;;;33.28;17.08;;;0.80;99.90;;;;;;478483;248;28081;-70
2023/12/19 06:29:46;;;;;;;30.12;18.12;;;0.80;99.90;;;;;;478516;248;27930;-69
2023/12/19 06:31:47;;;;;;;26.05;15.88;;;0.70;99.90;;;;;;478462;248;27577;-70
2023/12/19 06:33:48;;;;;;;29.87;15.98;;;0.80;99.90;;;;;;478469;248;27560;-70
2023/12/19 06:35:51;;;;;;;26.62;16.60;;;0.70;99.90;;;;;;478515;248;27521;-69
2023/12/19 06:37:51;;;;;;;26.20;17.30;;;0.80;99.90;;;;;;478365;248;27545;-69
2023/12/19 06:39:52;;;;;;;24.40;14.60;;;0.80;99.90;;;;;;478516;248;27882;-70
2023/12/19 06:41:53;;;;;;;26.52;16.67;;;0.80;99.90;;;;;;478499;248;27610;-69
2023/12/19 06:43:55;;;;;;;25.55;14.68;;;0.80;99.90;;;;;;478465;248;28010;-69
2023/12/19 06:45:56;;;;;;;25.05;15.20;;;0.80;99.90;;;;;;478476;248;27951;-70
2023/12/19 06:47:57;;;;;;;31.77;16.42;;;0.90;99.90;;;;;;478457;248;27646;-70
2023/12/19 06:49:58;;;;;;;24.05;14.80;;;0.90;99.90;;;;;;478544;248;27551;-69
2023/12/19 06:52:00;;;;;;;23.87;14.70;;;0.90;99.90;;;;;;478498;248;27929;-69
2023/12/19 06:54:01;;;;;;;28.92;16.37;;;0.90;99.90;;;;;;478442;248;27546;-69
2023/12/19 06:56:03;;;;;;;28.42;16.33;;;0.80;99.90;;;;;;478474;248;27559;-70
2023/12/19 06:58:03;;;;;;;26.15;15.07;;;0.70;99.90;;;;;;478471;248;27899;-69
2023/12/19 07:00:06;;;;;;;26.40;15.57;;;0.70;99.90;;;;;;478484;248;28022;-70
2023/12/19 07:02:06;;;;;;;24.17;14.77;;;0.80;99.90;;;;;;478440;248;27947;-69
2023/12/19 07:04:07;;;;;;;26.17;15.50;;;0.80;99.90;;;;;;478478;248;27574;-70
2023/12/19 07:06:08;;;;;;;26.35;15.15;;;0.80;99.90;;;;;;478484;248;27572;-71
2023/12/19 07:08:10;;;;;;;28.42;15.65;;;0.70;99.90;;;;;;478540;248;27517;-70
2023/12/19 07:10:11;;;;;;;23.95;14.27;;;0.80;99.90;;;;;;478468;248;27627;-69
2023/12/19 07:12:12;;;;;;;23.12;13.82;;;0.80;99.90;;;;;;478499;248;27501;-69
2023/12/19 07:14:13;;;;;;;27.00;14.82;;;0.70;99.90;;;;;;478457;248;27984;-69
2023/12/19 07:16:17;;;;;;;25.10;15.15;;;0.70;99.90;;;;;;478525;248;28101;-70
2023/12/19 07:18:16;;;;;;;24.48;14.52;;;0.80;99.90;;;;;;478367;243;27511;-69
2023/12/19 07:20:18;;;;;;;26.12;15.25;;;0.80;99.90;;;;;;478503;248;27638;-69
2023/12/19 07:22:18;;;;;;;25.70;15.00;;;0.80;99.90;;;;;;478549;248;27514;-69
2023/12/19 07:24:20;;;;;;;23.92;13.68;;;0.80;99.90;;;;;;478495;248;27488;-69
2023/12/19 07:26:21;;;;;;;25.30;13.20;;;0.80;99.90;;;;;;478520;248;27733;-70
2023/12/19 07:28:23;;;;;;;27.08;15.00;;;0.80;99.90;;;;;;478508;248;27502;-69
2023/12/19 07:30:24;;;;;;;22.42;13.25;;;0.80;99.90;;;;;;478471;248;28011;-69
2023/12/19 07:32:25;;;;;;;26.87;15.23;;;0.80;99.90;;;;;;478551;243;28176;-71
2023/12/19 07:34:26;;;;;;;26.85;14.57;;;0.70;99.90;;;;;;478494;243;27515;-69
2023/12/19 07:36:27;;;;;;;27.77;15.05;;;0.80;99.90;;;;;;478522;248;27537;-70
2023/12/19 07:38:29;;;;;;;27.35;14.52;;;0.80;99.90;;;;;;478503;248;27538;-69
2023/12/19 07:40:31;;;;;;;26.55;14.38;;;0.70;99.90;;;;;;478515;248;27635;-69
2023/12/19 07:42:32;;;;;;;25.50;14.93;;;0.80;99.90;;;;;;478476;248;27656;-70
2023/12/19 07:44:32;;;;;;;26.50;15.40;;;0.80;99.90;;;;;;478480;248;27492;-69
2023/12/19 07:46:34;;;;;;;24.37;14.07;;;0.80;99.90;;;;;;478528;248;28000;-69
2023/12/19 07:48:35;;;;;;;24.60;14.60;;;0.80;99.90;;;;;;478511;248;28761;-69
2023/12/19 07:50:36;;;;;;;26.00;13.45;;;0.90;99.90;;;;;;478553;248;27511;-69
2023/12/19 07:52:37;;;;;;;22.65;13.55;;;0.80;99.90;;;;;;478521;248;27659;-70
2023/12/19 07:54:39;;;;;;;21.67;12.85;;;0.80;99.90;;;;;;478527;248;27503;-69
2023/12/19 07:56:40;;;;;;;22.75;12.45;;;0.80;99.90;;;;;;478524;248;27638;-69
2023/12/19 07:58:41;;;;;;;21.05;12.55;;;0.80;99.90;;;;;;478562;248;27887;-70
2023/12/19 08:00:42;;;;;;;22.90;13.30;;;0.80;99.90;;;;;;478540;248;27951;-69
2023/12/19 08:02:45;;;;;;;20.77;12.60;;;0.90;99.90;;;;;;478496;248;28043;-70
2023/12/19 08:04:45;;;;;;;21.52;12.55;;;0.90;99.90;;;;;;478487;248;27587;-69
2023/12/19 08:06:46;;;;;;;21.17;12.63;;;0.90;99.90;;;;;;478553;248;27508;-69
2023/12/19 08:08:50;;;;;;;21.80;13.57;;;0.90;99.90;;;;;;478567;248;27522;-70
2023/12/19 08:10:49;;;;;;;22.55;12.48;;;1.00;99.90;;;;;;478355;248;27496;-69
2023/12/19 08:12:50;;;;;;;22.45;13.23;;;0.90;99.90;;;;;;478480;248;27534;-70
2023/12/19 08:14:51;;;;;;;18.25;11.90;;;1.00;99.90;;;;;;478516;248;27536;-71
2023/12/19 08:16:53;;;;;;;22.77;12.37;;;1.00;99.90;;;;;;478568;248;27928;-70
2023/12/19 08:18:54;;;;;;;22.73;12.85;;;1.00;99.90;;;;;;478558;243;28048;-70
2023/12/19 08:20:55;;;;;;;19.50;12.43;;;1.00;99.90;;;;;;478533;248;27492;-69
2023/12/19 08:22:56;;;;;;;24.17;12.80;;;1.00;99.90;;;;;;478493;248;27540;-69
2023/12/19 08:24:58;;;;;;;20.35;12.02;;;1.00;99.90;;;;;;478582;248;27543;-72
2023/12/19 08:26:59;;;;;;;19.08;11.35;;;1.00;99.90;;;;;;478547;248;27514;-70
2023/12/19 08:29:00;;;;;;;18.27;11.27;;;1.10;99.90;;;;;;478523;248;27531;-69
2023/12/19 08:31:03;;;;;;;18.65;12.45;;;1.00;99.90;;;;;;478526;248;27532;-69
2023/12/19 08:33:03;;;;;;;16.77;9.93;;;1.00;99.90;;;;;;478423;248;27958;-69
2023/12/19 08:35:04;;;;;;;23.48;12.15;;;1.10;99.90;;;;;;478529;248;28083;-70
2023/12/19 08:37:05;;;;;;;18.12;11.07;;;1.20;99.90;;;;;;478522;248;27574;-69
2023/12/19 08:39:07;;;;;;;17.75;11.52;;;1.20;99.90;;;;;;478519;248;27542;-69
2023/12/19 08:41:08;;;;;;;22.92;11.40;;;1.30;99.90;;;;;;478481;248;27543;-69
2023/12/19 08:43:09;;;;;;;19.62;11.38;;;1.20;99.90;;;;;;478494;248;27505;-69
2023/12/19 08:45:10;;;;;;;20.58;11.52;;;1.20;99.90;;;;;;478513;248;27639;-70
2023/12/19 08:47:11;;;;;;;25.00;13.00;;;1.10;99.90;;;;;;478503;248;27574;-69
2023/12/19 08:49:13;;;;;;;19.90;11.63;;;1.10;99.90;;;;;;478506;248;28089;-69
2023/12/19 08:51:14;;;;;;;23.38;12.20;;;1.20;99.90;;;;;;478530;248;28111;-70
2023/12/19 08:53:15;;;;;;;22.00;12.10;;;1.20;99.90;;;;;;478492;248;27640;-70
2023/12/19 08:55:16;;;;;;;24.20;12.48;;;1.20;99.90;;;;;;478500;248;27714;-70
2023/12/19 08:57:18;;;;;;;18.35;10.50;;;1.20;99.90;;;;;;478507;248;27542;-69
2023/12/19 08:59:19;;;;;;;22.50;11.75;;;1.30;99.90;;;;;;478478;248;27553;-70
2023/12/19 09:01:20;;;;;;;23.27;12.13;;;1.30;99.90;;;;;;478491;248;28049;-70
2023/12/19 09:03:23;;;;;;;18.30;11.55;;;1.30;99.90;;;;;;478478;248;28058;-69
2023/12/19 09:05:23;;;;;;;21.80;12.45;;;1.30;99.90;;;;;;478447;248;27589;-70
2023/12/19 09:07:24;;;;;;;15.98;10.38;;;1.30;99.90;;;;;;478490;248;27535;-70
2023/12/19 09:09:27;;;;;;;19.52;11.80;;;1.40;99.90;;;;;;478545;248;27585;-69
2023/12/19 09:11:26;;;;;;;16.15;10.40;;;1.40;99.90;;;;;;478434;248;27535;-70
2023/12/19 09:13:28;;;;;;;18.10;11.70;;;1.50;99.90;;;;;;478476;248;27576;-69
2023/12/19 09:15:29;;;;;;;15.90;10.05;;;1.50;99.90;;;;;;478468;248;27577;-69
2023/12/19 09:17:30;;;;;;;18.00;11.43;;;1.50;99.90;;;;;;478522;248;28090;-71
2023/12/19 09:19:34;;;;;;;17.83;10.70;;;1.40;99.90;;;;;;478469;248;27985;-69
2023/12/19 09:21:33;;;;;;;20.55;11.75;;;1.40;99.90;;;;;;478318;248;27619;-69
2023/12/19 09:23:34;;;;;;;16.23;10.07;;;1.50;99.90;;;;;;478479;248;27497;-70
2023/12/19 09:25:35;;;;;;;19.20;12.10;;;1.50;99.90;;;;;;478491;248;27530;-69
2023/12/19 09:27:37;;;;;;;22.13;11.30;;;1.50;99.90;;;;;;478507;248;27603;-70
2023/12/19 09:29:38;;;;;;;17.62;11.02;;;1.40;99.90;;;;;;478517;248;27576;-69
2023/12/19 09:31:39;;;;;;;18.98;11.82;;;1.40;99.90;;;;;;478485;248;27594;-69
2023/12/19 09:33:40;;;;;;;23.55;12.55;;;1.40;99.90;;;;;;478431;248;28835;-69
2023/12/19 09:35:42;;;;;;;21.65;13.10;;;1.30;99.90;;;;;;480562;236;27988;-70
2023/12/19 09:37:44;;;;;;;21.17;12.23;;;1.30;99.90;;;;;;479619;247;27524;-71
2023/12/19 09:39:44;;;;;;;22.23;12.95;;;1.40;99.90;;;;;;479525;247;27479;-70
2023/12/19 09:41:45;;;;;;;19.00;11.98;;;1.40;99.90;;;;;;479612;247;27564;-70
2023/12/19 09:43:47;;;;;;;17.42;11.23;;;1.40;99.90;;;;;;479565;247;27999;-73
2023/12/19 09:45:48;;;;;;;22.83;12.00;;;1.40;99.90;;;;;;479635;247;27627;-70
2023/12/19 09:47:49;;;;;;;21.20;11.63;;;1.50;99.90;;;;;;479618;247;27631;-70
2023/12/19 09:49:50;;;;;;;18.95;11.88;;;1.50;99.90;;;;;;479600;247;27963;-72
2023/12/19 09:51:52;;;;;;;20.10;11.48;;;1.50;99.90;;;;;;479584;247;28079;-72
2023/12/19 09:53:54;;;;;;;20.35;14.02;;;1.50;99.90;;;;;;479566;247;27554;-74
2023/12/19 09:55:54;;;;;;;18.80;11.82;;;1.50;99.90;;;;;;479589;247;27567;-72
2023/12/19 09:57:56;;;;;;;18.90;11.35;;;1.50;99.90;;;;;;479593;247;27565;-72
2023/12/19 09:59:57;;;;;;;18.08;11.35;;;1.50;99.90;;;;;;479589;247;27666;-72
2023/12/19 10:01:58;;;;;;;24.52;13.70;;;1.50;99.90;;;;;;479590;247;27488;-72
2023/12/19 10:03:59;;;;;;;21.73;12.30;;;1.50;99.90;;;;;;479541;247;27972;-74
2023/12/19 10:06:01;;;;;;;43.00;13.27;;;1.40;99.90;;;;;;479606;247;28101;-72
2023/12/19 10:08:03;;;;;;;21.80;11.90;;;1.40;99.90;;;;;;479568;247;27547;-72
2023/12/19 10:10:03;;;;;;;20.75;11.80;;;1.30;99.90;;;;;;479567;247;27528;-72
2023/12/19 10:12:04;;;;;;;20.00;12.48;;;1.40;99.90;;;;;;479580;247;27497;-72
2023/12/19 10:14:05;;;;;;;18.37;10.80;;;1.50;99.90;;;;;;479537;247;27553;-73
2023/12/19 10:16:08;;;;;;;22.10;11.45;;;1.50;99.90;;;;;;479545;247;27500;-72
2023/12/19 10:18:11;;;;;;;19.20;12.02;;;1.60;99.90;;;;;;479531;247;27526;-72
2023/12/19 10:20:10;;;;;;;21.42;12.95;;;1.60;99.90;;;;;;479498;248;27992;-74
2023/12/19 10:22:10;;;;;;;26.45;13.00;;;1.60;99.90;;;;;;479584;247;27552;-72